sensor_id;sensor_type;location;lat;lon;timestamp;temperature;humidity
18297;DHT22;18066;52.106;5.534;2023-08-24T00:01:23;18.00;99.90
18297;DHT22;18066;52.106;5.534;2023-08-24T00:03:50;18.00;99.90
18297;DHT22;18066;52.106;5.534;2023-08-24T00:06:18;18.00;99.90
18297;DHT22;18066;52.106;5.534;2023-08-24T00:08:45;18.10;99.90
18297;DHT22;18066;52.106;5.534;2023-08-24T00:11:13;18.10;99.90
18297;DHT22;18066;52.106;5.534;2023-08-24T00:13:40;18.00;99.90
18297;DHT22;18066;52.106;5.534;2023-08-24T00:16:11;18.10;99.90
18297;DHT22;18066;52.106;5.534;2023-08-24T00:18:39;18.10;99.90
18297;DHT22;18066;52.106;5.534;2023-08-24T00:21:06;18.00;99.90
18297;DHT22;18066;52.106;5.534;2023-08-24T00:23:35;18.00;99.90
18297;DHT22;18066;52.106;5.534;2023-08-24T00:26:01;18.00;99.90
18297;DHT22;18066;52.106;5.534;2023-08-24T00:28:28;17.90;99.90
18297;DHT22;18066;52.106;5.534;2023-08-24T00:30:55;18.00;99.90
18297;DHT22;18066;52.106;5.534;2023-08-24T00:33:22;18.00;99.90
18297;DHT22;18066;52.106;5.534;2023-08-24T00:35:49;18.00;99.90
18297;DHT22;18066;52.106;5.534;2023-08-24T00:38:16;18.00;99.90
18297;DHT22;18066;52.106;5.534;2023-08-24T00:40:45;18.00;99.90
18297;DHT22;18066;52.106;5.534;2023-08-24T00:43:12;18.00;99.90
18297;DHT22;18066;52.106;5.534;2023-08-24T00:45:39;18.00;99.90
18297;DHT22;18066;52.106;5.534;2023-08-24T00:48:07;18.10;99.90
18297;DHT22;18066;52.106;5.534;2023-08-24T00:50:34;18.00;99.90
18297;DHT22;18066;52.106;5.534;2023-08-24T00:53:02;18.00;99.90
18297;DHT22;18066;52.106;5.534;2023-08-24T00:55:29;17.90;99.90
18297;DHT22;18066;52.106;5.534;2023-08-24T00:57:59;17.90;99.90
18297;DHT22;18066;52.106;5.534;2023-08-24T01:00:26;17.90;99.90
18297;DHT22;18066;52.106;5.534;2023-08-24T01:02:52;17.90;99.90
18297;DHT22;18066;52.106;5.534;2023-08-24T01:05:19;18.00;99.90
18297;DHT22;18066;52.106;5.534;2023-08-24T01:07:47;18.00;99.90
18297;DHT22;18066;52.106;5.534;2023-08-24T01:10:14;18.00;99.90
18297;DHT22;18066;52.106;5.534;2023-08-24T01:12:50;18.00;99.90
18297;DHT22;18066;52.106;5.534;2023-08-24T01:15:25;18.00;99.90
18297;DHT22;18066;52.106;5.534;2023-08-24T01:17:56;18.00;99.90
18297;DHT22;18066;52.106;5.534;2023-08-24T01:20:26;18.00;99.90
18297;DHT22;18066;52.106;5.534;2023-08-24T01:22:58;17.90;99.90
18297;DHT22;18066;52.106;5.534;2023-08-24T01:25:34;17.90;99.90
18297;DHT22;18066;52.106;5.534;2023-08-24T01:28:05;17.90;99.90
18297;DHT22;18066;52.106;5.534;2023-08-24T01:30:34;17.90;99.90
18297;DHT22;18066;52.106;5.534;2023-08-24T01:33:02;17.90;99.90
18297;DHT22;18066;52.106;5.534;2023-08-24T01:35:30;17.90;99.90
18297;DHT22;18066;52.106;5.534;2023-08-24T01:37:58;17.90;99.90
18297;DHT22;18066;52.106;5.534;2023-08-24T01:40:36;18.00;99.90
18297;DHT22;18066;52.106;5.534;2023-08-24T01:43:08;17.90;99.90
18297;DHT22;18066;52.106;5.534;2023-08-24T01:45:36;17.90;99.90
18297;DHT22;18066;52.106;5.534;2023-08-24T01:48:04;17.90;99.90
18297;DHT22;18066;52.106;5.534;2023-08-24T01:50:31;17.90;99.90
18297;DHT22;18066;52.106;5.534;2023-08-24T01:52:59;17.90;99.90
18297;DHT22;18066;52.106;5.534;2023-08-24T01:55:26;17.90;99.90
18297;DHT22;18066;52.106;5.534;2023-08-24T01:57:54;17.90;99.90
18297;DHT22;18066;52.106;5.534;2023-08-24T02:00:23;17.90;99.90
18297;DHT22;18066;52.106;5.534;2023-08-24T02:02:50;18.00;99.90
18297;DHT22;18066;52.106;5.534;2023-08-24T02:05:17;18.00;99.90
18297;DHT22;18066;52.106;5.534;2023-08-24T02:07:44;18.00;99.90
18297;DHT22;18066;52.106;5.534;2023-08-24T02:10:11;18.00;99.90
18297;DHT22;18066;52.106;5.534;2023-08-24T02:12:38;18.00;99.90
18297;DHT22;18066;52.106;5.534;2023-08-24T02:15:05;18.00;99.90
18297;DHT22;18066;52.106;5.534;2023-08-24T02:17:34;18.00;99.90
18297;DHT22;18066;52.106;5.534;2023-08-24T02:20:01;18.00;99.90
18297;DHT22;18066;52.106;5.534;2023-08-24T02:22:28;18.00;99.90
18297;DHT22;18066;52.106;5.534;2023-08-24T02:24:56;18.00;99.90
18297;DHT22;18066;52.106;5.534;2023-08-24T02:27:23;18.00;99.90
18297;DHT22;18066;52.106;5.534;2023-08-24T02:29:49;18.10;99.90
18297;DHT22;18066;52.106;5.534;2023-08-24T02:32:16;18.10;99.90
18297;DHT22;18066;52.106;5.534;2023-08-24T02:34:44;18.00;99.90
18297;DHT22;18066;52.106;5.534;2023-08-24T02:37:11;18.00;99.90
18297;DHT22;18066;52.106;5.534;2023-08-24T02:39:38;18.00;99.90
18297;DHT22;18066;52.106;5.534;2023-08-24T02:42:05;18.10;99.90
18297;DHT22;18066;52.106;5.534;2023-08-24T02:44:32;18.10;99.90
18297;DHT22;18066;52.106;5.534;2023-08-24T02:47:00;18.00;99.90
18297;DHT22;18066;52.106;5.534;2023-08-24T02:49:27;18.00;99.90
18297;DHT22;18066;52.106;5.534;2023-08-24T02:51:55;18.00;99.90
18297;DHT22;18066;52.106;5.534;2023-08-24T02:54:22;18.00;99.90
18297;DHT22;18066;52.106;5.534;2023-08-24T02:56:49;18.00;99.90
18297;DHT22;18066;52.106;5.534;2023-08-24T02:59:16;18.00;99.90
18297;DHT22;18066;52.106;5.534;2023-08-24T03:01:42;18.10;99.90
18297;DHT22;18066;52.106;5.534;2023-08-24T03:04:09;18.20;99.90
18297;DHT22;18066;52.106;5.534;2023-08-24T03:06:36;18.10;99.90
18297;DHT22;18066;52.106;5.534;2023-08-24T03:09:04;18.00;99.90
18297;DHT22;18066;52.106;5.534;2023-08-24T03:11:31;18.00;99.90
18297;DHT22;18066;52.106;5.534;2023-08-24T03:13:58;18.10;99.90
18297;DHT22;18066;52.106;5.534;2023-08-24T03:16:25;18.00;99.90
18297;DHT22;18066;52.106;5.534;2023-08-24T03:18:52;18.10;99.90
18297;DHT22;18066;52.106;5.534;2023-08-24T03:21:19;18.00;99.90
18297;DHT22;18066;52.106;5.534;2023-08-24T03:23:46;18.00;99.90
18297;DHT22;18066;52.106;5.534;2023-08-24T03:26:14;18.00;99.90
18297;DHT22;18066;52.106;5.534;2023-08-24T03:28:42;17.90;99.90
18297;DHT22;18066;52.106;5.534;2023-08-24T03:31:08;18.00;99.90
18297;DHT22;18066;52.106;5.534;2023-08-24T03:33:35;18.00;99.90
18297;DHT22;18066;52.106;5.534;2023-08-24T03:36:02;18.00;99.90
18297;DHT22;18066;52.106;5.534;2023-08-24T03:38:29;17.90;99.90
18297;DHT22;18066;52.106;5.534;2023-08-24T03:41:00;17.80;99.90
18297;DHT22;18066;52.106;5.534;2023-08-24T03:43:31;17.80;99.90
18297;DHT22;18066;52.106;5.534;2023-08-24T03:45:58;17.80;99.90
18297;DHT22;18066;52.106;5.534;2023-08-24T03:48:26;17.80;99.90
18297;DHT22;18066;52.106;5.534;2023-08-24T03:50:54;17.80;99.90
18297;DHT22;18066;52.106;5.534;2023-08-24T03:53:21;17.70;99.90
18297;DHT22;18066;52.106;5.534;2023-08-24T03:55:48;17.70;99.90
18297;DHT22;18066;52.106;5.534;2023-08-24T03:58:15;17.80;99.90
18297;DHT22;18066;52.106;5.534;2023-08-24T04:00:43;17.70;99.90
18297;DHT22;18066;52.106;5.534;2023-08-24T04:03:11;17.70;99.90
18297;DHT22;18066;52.106;5.534;2023-08-24T04:05:38;17.70;99.90
18297;DHT22;18066;52.106;5.534;2023-08-24T04:08:05;17.70;99.90
18297;DHT22;18066;52.106;5.534;2023-08-24T04:10:33;17.60;99.90
18297;DHT22;18066;52.106;5.534;2023-08-24T04:13:00;17.50;99.90
18297;DHT22;18066;52.106;5.534;2023-08-24T04:15:27;17.50;99.90
18297;DHT22;18066;52.106;5.534;2023-08-24T04:17:55;17.50;99.90
18297;DHT22;18066;52.106;5.534;2023-08-24T04:20:22;17.50;99.90
18297;DHT22;18066;52.106;5.534;2023-08-24T04:22:49;17.60;99.90
18297;DHT22;18066;52.106;5.534;2023-08-24T04:25:16;17.50;99.90
18297;DHT22;18066;52.106;5.534;2023-08-24T04:27:43;17.60;99.90
18297;DHT22;18066;52.106;5.534;2023-08-24T04:30:10;17.50;99.90
18297;DHT22;18066;52.106;5.534;2023-08-24T04:32:39;17.50;99.90
18297;DHT22;18066;52.106;5.534;2023-08-24T04:35:08;17.50;99.90
18297;DHT22;18066;52.106;5.534;2023-08-24T04:37:35;17.50;99.90
18297;DHT22;18066;52.106;5.534;2023-08-24T04:40:03;17.50;99.90
18297;DHT22;18066;52.106;5.534;2023-08-24T04:42:32;17.50;99.90
18297;DHT22;18066;52.106;5.534;2023-08-24T04:44:59;17.50;99.90
18297;DHT22;18066;52.106;5.534;2023-08-24T04:47:27;17.50;99.90
18297;DHT22;18066;52.106;5.534;2023-08-24T04:49:53;17.50;99.90
18297;DHT22;18066;52.106;5.534;2023-08-24T04:52:22;17.50;99.90
18297;DHT22;18066;52.106;5.534;2023-08-24T04:54:49;17.60;99.90
18297;DHT22;18066;52.106;5.534;2023-08-24T04:57:16;17.50;99.90
18297;DHT22;18066;52.106;5.534;2023-08-24T04:59:43;17.60;99.90
18297;DHT22;18066;52.106;5.534;2023-08-24T05:02:10;17.60;99.90
18297;DHT22;18066;52.106;5.534;2023-08-24T05:04:37;17.60;99.90
18297;DHT22;18066;52.106;5.534;2023-08-24T05:07:04;17.60;99.90
18297;DHT22;18066;52.106;5.534;2023-08-24T05:09:32;17.60;99.90
18297;DHT22;18066;52.106;5.534;2023-08-24T05:11:59;17.60;99.90
18297;DHT22;18066;52.106;5.534;2023-08-24T05:14:26;17.60;99.90
18297;DHT22;18066;52.106;5.534;2023-08-24T05:16:53;17.60;99.90
18297;DHT22;18066;52.106;5.534;2023-08-24T05:19:20;17.70;99.90
18297;DHT22;18066;52.106;5.534;2023-08-24T05:21:47;17.70;99.90
18297;DHT22;18066;52.106;5.534;2023-08-24T05:24:14;17.70;99.90
18297;DHT22;18066;52.106;5.534;2023-08-24T05:26:42;17.80;99.90
18297;DHT22;18066;52.106;5.534;2023-08-24T05:29:09;17.80;99.90
18297;DHT22;18066;52.106;5.534;2023-08-24T05:31:36;17.80;99.90
18297;DHT22;18066;52.106;5.534;2023-08-24T05:34:03;17.80;99.90
18297;DHT22;18066;52.106;5.534;2023-08-24T05:36:29;17.90;99.90
18297;DHT22;18066;52.106;5.534;2023-08-24T05:38:56;17.90;99.90
18297;DHT22;18066;52.106;5.534;2023-08-24T05:41:23;17.90;99.90
18297;DHT22;18066;52.106;5.534;2023-08-24T05:43:52;17.90;99.90
18297;DHT22;18066;52.106;5.534;2023-08-24T05:46:19;18.00;99.90
18297;DHT22;18066;52.106;5.534;2023-08-24T05:48:46;18.00;99.90
18297;DHT22;18066;52.106;5.534;2023-08-24T05:51:13;18.10;99.90
18297;DHT22;18066;52.106;5.534;2023-08-24T05:53:40;18.10;99.90
18297;DHT22;18066;52.106;5.534;2023-08-24T05:56:07;18.10;99.90
18297;DHT22;18066;52.106;5.534;2023-08-24T06:08:50;18.40;99.90
18297;DHT22;18066;52.106;5.534;2023-08-24T06:11:17;18.50;99.90
18297;DHT22;18066;52.106;5.534;2023-08-24T06:13:44;18.50;99.90
18297;DHT22;18066;52.106;5.534;2023-08-24T06:16:11;18.70;99.90
18297;DHT22;18066;52.106;5.534;2023-08-24T06:18:38;18.60;99.90
18297;DHT22;18066;52.106;5.534;2023-08-24T06:21:05;18.70;99.90
18297;DHT22;18066;52.106;5.534;2023-08-24T06:23:33;18.70;99.90
18297;DHT22;18066;52.106;5.534;2023-08-24T06:26:02;18.80;99.90
18297;DHT22;18066;52.106;5.534;2023-08-24T06:28:30;18.80;99.90
18297;DHT22;18066;52.106;5.534;2023-08-24T06:30:57;18.90;99.90
18297;DHT22;18066;52.106;5.534;2023-08-24T06:33:27;19.00;99.90
18297;DHT22;18066;52.106;5.534;2023-08-24T06:35:55;19.00;99.90
18297;DHT22;18066;52.106;5.534;2023-08-24T06:38:22;19.10;99.90
18297;DHT22;18066;52.106;5.534;2023-08-24T06:40:49;19.10;99.90
18297;DHT22;18066;52.106;5.534;2023-08-24T06:43:17;19.30;99.90
18297;DHT22;18066;52.106;5.534;2023-08-24T06:45:44;19.40;99.90
18297;DHT22;18066;52.106;5.534;2023-08-24T06:48:11;19.40;99.90
18297;DHT22;18066;52.106;5.534;2023-08-24T06:50:38;19.50;99.90
18297;DHT22;18066;52.106;5.534;2023-08-24T06:53:05;19.60;99.90
18297;DHT22;18066;52.106;5.534;2023-08-24T06:55:32;19.70;99.90
18297;DHT22;18066;52.106;5.534;2023-08-24T06:57:59;19.70;99.90
18297;DHT22;18066;52.106;5.534;2023-08-24T07:00:27;19.80;99.90
18297;DHT22;18066;52.106;5.534;2023-08-24T07:02:54;20.00;99.90
18297;DHT22;18066;52.106;5.534;2023-08-24T07:05:21;20.00;99.90
18297;DHT22;18066;52.106;5.534;2023-08-24T07:07:50;20.20;99.90
18297;DHT22;18066;52.106;5.534;2023-08-24T07:10:17;20.30;99.90
18297;DHT22;18066;52.106;5.534;2023-08-24T07:12:44;20.50;99.90
18297;DHT22;18066;52.106;5.534;2023-08-24T07:15:11;20.70;99.90
18297;DHT22;18066;52.106;5.534;2023-08-24T07:17:40;20.80;99.90
18297;DHT22;18066;52.106;5.534;2023-08-24T07:20:08;21.00;99.90
18297;DHT22;18066;52.106;5.534;2023-08-24T07:22:36;21.10;99.90
18297;DHT22;18066;52.106;5.534;2023-08-24T07:25:05;21.30;99.90
18297;DHT22;18066;52.106;5.534;2023-08-24T07:27:32;21.40;99.90
18297;DHT22;18066;52.106;5.534;2023-08-24T07:29:59;21.60;99.90
18297;DHT22;18066;52.106;5.534;2023-08-24T07:32:26;21.80;99.90
18297;DHT22;18066;52.106;5.534;2023-08-24T07:34:56;21.90;99.90
18297;DHT22;18066;52.106;5.534;2023-08-24T07:37:24;22.00;99.90
18297;DHT22;18066;52.106;5.534;2023-08-24T07:39:51;22.10;99.90
18297;DHT22;18066;52.106;5.534;2023-08-24T07:42:19;22.30;99.90
18297;DHT22;18066;52.106;5.534;2023-08-24T07:44:46;22.40;99.90
18297;DHT22;18066;52.106;5.534;2023-08-24T07:47:14;22.50;99.90
18297;DHT22;18066;52.106;5.534;2023-08-24T07:49:41;22.70;99.90
18297;DHT22;18066;52.106;5.534;2023-08-24T07:52:11;22.80;99.90
18297;DHT22;18066;52.106;5.534;2023-08-24T07:54:38;22.90;99.90
18297;DHT22;18066;52.106;5.534;2023-08-24T07:57:06;23.00;99.90
18297;DHT22;18066;52.106;5.534;2023-08-24T07:59:33;23.10;99.90
18297;DHT22;18066;52.106;5.534;2023-08-24T08:02:00;23.20;99.90
18297;DHT22;18066;52.106;5.534;2023-08-24T08:04:26;23.30;99.90
18297;DHT22;18066;52.106;5.534;2023-08-24T08:06:53;23.40;99.90
18297;DHT22;18066;52.106;5.534;2023-08-24T08:09:22;23.50;99.90
18297;DHT22;18066;52.106;5.534;2023-08-24T08:11:49;23.60;99.90
18297;DHT22;18066;52.106;5.534;2023-08-24T08:14:17;23.80;99.90
18297;DHT22;18066;52.106;5.534;2023-08-24T08:16:44;23.90;99.90
18297;DHT22;18066;52.106;5.534;2023-08-24T08:19:10;23.90;99.90
18297;DHT22;18066;52.106;5.534;2023-08-24T08:21:37;24.00;99.90
18297;DHT22;18066;52.106;5.534;2023-08-24T08:24:04;24.10;99.90
18297;DHT22;18066;52.106;5.534;2023-08-24T08:26:33;24.20;99.90
18297;DHT22;18066;52.106;5.534;2023-08-24T08:29:01;24.30;99.90
18297;DHT22;18066;52.106;5.534;2023-08-24T08:31:28;24.30;99.90
18297;DHT22;18066;52.106;5.534;2023-08-24T08:33:54;24.40;99.90
18297;DHT22;18066;52.106;5.534;2023-08-24T08:36:21;24.50;99.90
18297;DHT22;18066;52.106;5.534;2023-08-24T08:38:48;24.50;99.90
18297;DHT22;18066;52.106;5.534;2023-08-24T08:41:17;24.60;99.90
18297;DHT22;18066;52.106;5.534;2023-08-24T08:43:47;24.70;99.90
18297;DHT22;18066;52.106;5.534;2023-08-24T08:46:15;24.70;99.90
18297;DHT22;18066;52.106;5.534;2023-08-24T08:48:44;24.70;99.90
18297;DHT22;18066;52.106;5.534;2023-08-24T08:51:14;24.80;99.90
18297;DHT22;18066;52.106;5.534;2023-08-24T08:53:42;24.80;99.90
18297;DHT22;18066;52.106;5.534;2023-08-24T08:56:09;24.70;99.90
18297;DHT22;18066;52.106;5.534;2023-08-24T08:58:37;24.90;99.90
18297;DHT22;18066;52.106;5.534;2023-08-24T09:01:06;25.00;99.90
18297;DHT22;18066;52.106;5.534;2023-08-24T09:03:34;25.10;99.90
18297;DHT22;18066;52.106;5.534;2023-08-24T09:06:03;25.20;99.90
18297;DHT22;18066;52.106;5.534;2023-08-24T09:08:30;25.40;99.90
18297;DHT22;18066;52.106;5.534;2023-08-24T09:10:59;25.40;99.90
18297;DHT22;18066;52.106;5.534;2023-08-24T09:13:26;25.60;99.90
18297;DHT22;18066;52.106;5.534;2023-08-24T09:15:52;25.70;99.90
18297;DHT22;18066;52.106;5.534;2023-08-24T09:18:21;25.80;99.90
18297;DHT22;18066;52.106;5.534;2023-08-24T09:20:48;25.90;99.90
18297;DHT22;18066;52.106;5.534;2023-08-24T09:23:18;26.00;99.90
18297;DHT22;18066;52.106;5.534;2023-08-24T09:25:46;26.20;99.90
18297;DHT22;18066;52.106;5.534;2023-08-24T09:28:13;26.40;99.90
18297;DHT22;18066;52.106;5.534;2023-08-24T09:30:40;26.50;99.90
18297;DHT22;18066;52.106;5.534;2023-08-24T09:33:10;26.80;99.90
18297;DHT22;18066;52.106;5.534;2023-08-24T09:35:38;26.90;99.90
18297;DHT22;18066;52.106;5.534;2023-08-24T09:38:19;27.00;99.90
18297;DHT22;18066;52.106;5.534;2023-08-24T09:40:46;27.10;99.90
18297;DHT22;18066;52.106;5.534;2023-08-24T09:43:14;27.20;99.90
18297;DHT22;18066;52.106;5.534;2023-08-24T09:45:48;27.20;99.90
18297;DHT22;18066;52.106;5.534;2023-08-24T09:48:15;27.20;99.90
18297;DHT22;18066;52.106;5.534;2023-08-24T09:50:44;27.20;99.90
18297;DHT22;18066;52.106;5.534;2023-08-24T09:53:16;27.20;99.90
18297;DHT22;18066;52.106;5.534;2023-08-24T09:55:44;27.20;99.90
18297;DHT22;18066;52.106;5.534;2023-08-24T09:58:14;27.30;99.90
18297;DHT22;18066;52.106;5.534;2023-08-24T10:00:41;27.30;99.90
18297;DHT22;18066;52.106;5.534;2023-08-24T10:03:11;27.40;99.90
18297;DHT22;18066;52.106;5.534;2023-08-24T10:05:44;27.30;99.90
18297;DHT22;18066;52.106;5.534;2023-08-24T10:08:11;27.20;99.90
18297;DHT22;18066;52.106;5.534;2023-08-24T10:10:40;27.10;99.90
18297;DHT22;18066;52.106;5.534;2023-08-24T10:13:14;27.00;99.90
18297;DHT22;18066;52.106;5.534;2023-08-24T10:15:45;26.80;99.90
18297;DHT22;18066;52.106;5.534;2023-08-24T10:18:13;26.60;99.90
18297;DHT22;18066;52.106;5.534;2023-08-24T10:20:41;26.40;99.90
18297;DHT22;18066;52.106;5.534;2023-08-24T10:23:12;26.20;99.90
18297;DHT22;18066;52.106;5.534;2023-08-24T10:25:40;26.00;99.90
18297;DHT22;18066;52.106;5.534;2023-08-24T10:28:07;25.80;99.90
18297;DHT22;18066;52.106;5.534;2023-08-24T10:30:36;25.60;99.90
18297;DHT22;18066;52.106;5.534;2023-08-24T10:33:04;25.40;99.90
18297;DHT22;18066;52.106;5.534;2023-08-24T10:35:31;25.30;99.90
18297;DHT22;18066;52.106;5.534;2023-08-24T10:37:59;25.20;99.90
18297;DHT22;18066;52.106;5.534;2023-08-24T10:40:34;25.10;99.90
18297;DHT22;18066;52.106;5.534;2023-08-24T10:43:05;25.00;99.90
18297;DHT22;18066;52.106;5.534;2023-08-24T10:45:55;24.90;99.90
18297;DHT22;18066;52.106;5.534;2023-08-24T10:48:23;24.90;99.90
18297;DHT22;18066;52.106;5.534;2023-08-24T10:51:18;24.90;99.90
18297;DHT22;18066;52.106;5.534;2023-08-24T10:53:52;24.90;99.90
18297;DHT22;18066;52.106;5.534;2023-08-24T10:56:21;25.00;99.90
18297;DHT22;18066;52.106;5.534;2023-08-24T10:59:12;25.10;99.90
18297;DHT22;18066;52.106;5.534;2023-08-24T11:01:40;25.20;99.90
18297;DHT22;18066;52.106;5.534;2023-08-24T11:04:07;25.20;99.90
18297;DHT22;18066;52.106;5.534;2023-08-24T11:06:50;25.30;99.90
18297;DHT22;18066;52.106;5.534;2023-08-24T11:09:17;25.40;99.90
18297;DHT22;18066;52.106;5.534;2023-08-24T11:11:55;25.50;99.90
18297;DHT22;18066;52.106;5.534;2023-08-24T11:14:23;25.50;99.90
18297;DHT22;18066;52.106;5.534;2023-08-24T11:16:52;25.40;99.90
18297;DHT22;18066;52.106;5.534;2023-08-24T11:19:19;25.50;99.90
18297;DHT22;18066;52.106;5.534;2023-08-24T11:21:47;25.40;99.90
18297;DHT22;18066;52.106;5.534;2023-08-24T11:24:14;25.40;99.90
18297;DHT22;18066;52.106;5.534;2023-08-24T11:26:42;25.20;99.90
18297;DHT22;18066;52.106;5.534;2023-08-24T11:29:11;25.30;99.90
18297;DHT22;18066;52.106;5.534;2023-08-24T11:31:38;25.30;99.90
18297;DHT22;18066;52.106;5.534;2023-08-24T11:34:06;25.30;99.90
18297;DHT22;18066;52.106;5.534;2023-08-24T11:36:41;25.30;99.90
18297;DHT22;18066;52.106;5.534;2023-08-24T11:39:14;25.40;99.90
18297;DHT22;18066;52.106;5.534;2023-08-24T11:41:42;25.50;99.90
18297;DHT22;18066;52.106;5.534;2023-08-24T11:44:11;25.50;99.90
18297;DHT22;18066;52.106;5.534;2023-08-24T11:46:38;25.60;99.90
18297;DHT22;18066;52.106;5.534;2023-08-24T11:49:05;25.70;99.90
18297;DHT22;18066;52.106;5.534;2023-08-24T11:51:32;25.80;99.90
18297;DHT22;18066;52.106;5.534;2023-08-24T11:54:01;25.80;99.90
18297;DHT22;18066;52.106;5.534;2023-08-24T11:56:27;25.80;99.90
18297;DHT22;18066;52.106;5.534;2023-08-24T11:58:54;25.90;99.90
18297;DHT22;18066;52.106;5.534;2023-08-24T12:01:23;26.00;99.90
18297;DHT22;18066;52.106;5.534;2023-08-24T12:03:52;26.20;99.90
18297;DHT22;18066;52.106;5.534;2023-08-24T12:06:19;26.40;99.90
18297;DHT22;18066;52.106;5.534;2023-08-24T12:08:47;26.60;99.90
18297;DHT22;18066;52.106;5.534;2023-08-24T12:11:16;26.70;99.90
18297;DHT22;18066;52.106;5.534;2023-08-24T12:13:44;26.80;99.90
18297;DHT22;18066;52.106;5.534;2023-08-24T12:16:12;26.90;99.90
18297;DHT22;18066;52.106;5.534;2023-08-24T12:18:54;27.00;99.90
18297;DHT22;18066;52.106;5.534;2023-08-24T12:21:22;27.10;99.90
18297;DHT22;18066;52.106;5.534;2023-08-24T12:23:55;27.10;99.90
18297;DHT22;18066;52.106;5.534;2023-08-24T12:26:23;27.30;99.90
18297;DHT22;18066;52.106;5.534;2023-08-24T12:28:50;27.30;99.90
18297;DHT22;18066;52.106;5.534;2023-08-24T12:31:18;27.30;99.90
18297;DHT22;18066;52.106;5.534;2023-08-24T12:33:45;27.30;99.90
18297;DHT22;18066;52.106;5.534;2023-08-24T12:36:14;27.40;99.90
18297;DHT22;18066;52.106;5.534;2023-08-24T12:38:41;27.40;99.90
18297;DHT22;18066;52.106;5.534;2023-08-24T12:41:10;27.40;99.90
18297;DHT22;18066;52.106;5.534;2023-08-24T12:43:37;27.40;99.90
18297;DHT22;18066;52.106;5.534;2023-08-24T12:46:04;27.40;99.90
18297;DHT22;18066;52.106;5.534;2023-08-24T12:48:31;27.30;99.90
18297;DHT22;18066;52.106;5.534;2023-08-24T12:50:58;27.40;99.90
18297;DHT22;18066;52.106;5.534;2023-08-24T12:53:26;27.40;99.90
18297;DHT22;18066;52.106;5.534;2023-08-24T12:55:53;27.30;99.90
18297;DHT22;18066;52.106;5.534;2023-08-24T12:58:20;27.30;99.90
18297;DHT22;18066;52.106;5.534;2023-08-24T13:00:46;27.40;99.90
18297;DHT22;18066;52.106;5.534;2023-08-24T13:03:14;27.30;99.90
18297;DHT22;18066;52.106;5.534;2023-08-24T13:05:41;27.30;99.90
18297;DHT22;18066;52.106;5.534;2023-08-24T13:08:08;27.40;99.90
18297;DHT22;18066;52.106;5.534;2023-08-24T13:10:36;27.40;99.90
18297;DHT22;18066;52.106;5.534;2023-08-24T13:13:03;27.40;99.90
18297;DHT22;18066;52.106;5.534;2023-08-24T13:15:30;27.50;99.90
18297;DHT22;18066;52.106;5.534;2023-08-24T13:17:57;27.70;99.90
18297;DHT22;18066;52.106;5.534;2023-08-24T13:20:24;27.90;99.90
18297;DHT22;18066;52.106;5.534;2023-08-24T13:22:51;28.10;99.90
18297;DHT22;18066;52.106;5.534;2023-08-24T13:25:18;28.50;99.90
18297;DHT22;18066;52.106;5.534;2023-08-24T13:27:46;28.70;99.90
18297;DHT22;18066;52.106;5.534;2023-08-24T13:30:14;28.80;99.90
18297;DHT22;18066;52.106;5.534;2023-08-24T13:32:41;28.90;99.90
18297;DHT22;18066;52.106;5.534;2023-08-24T13:35:08;28.90;99.90
18297;DHT22;18066;52.106;5.534;2023-08-24T13:37:35;28.90;99.90
18297;DHT22;18066;52.106;5.534;2023-08-24T13:40:02;28.70;99.90
18297;DHT22;18066;52.106;5.534;2023-08-24T13:42:30;28.70;99.90
18297;DHT22;18066;52.106;5.534;2023-08-24T13:44:59;28.60;99.90
18297;DHT22;18066;52.106;5.534;2023-08-24T13:47:26;28.50;99.90
18297;DHT22;18066;52.106;5.534;2023-08-24T13:49:53;28.40;99.90
18297;DHT22;18066;52.106;5.534;2023-08-24T13:52:22;28.40;99.90
18297;DHT22;18066;52.106;5.534;2023-08-24T13:54:52;28.50;99.90
18297;DHT22;18066;52.106;5.534;2023-08-24T13:57:19;28.60;99.90
18297;DHT22;18066;52.106;5.534;2023-08-24T13:59:46;28.60;99.90
18297;DHT22;18066;52.106;5.534;2023-08-24T14:02:14;28.50;99.90
18297;DHT22;18066;52.106;5.534;2023-08-24T14:04:41;28.40;99.90
18297;DHT22;18066;52.106;5.534;2023-08-24T14:07:08;28.30;99.90
18297;DHT22;18066;52.106;5.534;2023-08-24T14:09:35;28.10;99.90
18297;DHT22;18066;52.106;5.534;2023-08-24T14:12:02;28.10;99.90
18297;DHT22;18066;52.106;5.534;2023-08-24T14:14:29;27.90;99.90
18297;DHT22;18066;52.106;5.534;2023-08-24T14:16:56;27.80;99.90
18297;DHT22;18066;52.106;5.534;2023-08-24T14:19:25;27.60;99.90
18297;DHT22;18066;52.106;5.534;2023-08-24T14:21:52;27.50;99.90
18297;DHT22;18066;52.106;5.534;2023-08-24T14:24:19;27.30;99.90
18297;DHT22;18066;52.106;5.534;2023-08-24T14:26:46;27.10;99.90
18297;DHT22;18066;52.106;5.534;2023-08-24T14:29:14;26.90;99.90
18297;DHT22;18066;52.106;5.534;2023-08-24T14:31:41;26.80;99.90
18297;DHT22;18066;52.106;5.534;2023-08-24T14:34:08;26.60;99.90
18297;DHT22;18066;52.106;5.534;2023-08-24T14:36:36;26.50;99.90
18297;DHT22;18066;52.106;5.534;2023-08-24T14:39:03;26.50;99.90
18297;DHT22;18066;52.106;5.534;2023-08-24T14:41:30;26.40;99.90
18297;DHT22;18066;52.106;5.534;2023-08-24T14:43:57;26.40;99.90
18297;DHT22;18066;52.106;5.534;2023-08-24T14:46:24;26.20;99.90
18297;DHT22;18066;52.106;5.534;2023-08-24T14:48:50;26.10;99.90
18297;DHT22;18066;52.106;5.534;2023-08-24T14:51:17;26.00;99.90
18297;DHT22;18066;52.106;5.534;2023-08-24T14:53:46;25.80;99.90
18297;DHT22;18066;52.106;5.534;2023-08-24T14:56:13;25.80;99.90
18297;DHT22;18066;52.106;5.534;2023-08-24T14:58:40;25.70;99.90
18297;DHT22;18066;52.106;5.534;2023-08-24T15:01:07;25.60;99.90
18297;DHT22;18066;52.106;5.534;2023-08-24T15:03:35;25.50;99.90
18297;DHT22;18066;52.106;5.534;2023-08-24T15:06:04;25.50;99.90
18297;DHT22;18066;52.106;5.534;2023-08-24T15:08:32;25.40;99.90
18297;DHT22;18066;52.106;5.534;2023-08-24T15:11:01;25.40;99.90
18297;DHT22;18066;52.106;5.534;2023-08-24T15:13:29;25.40;99.90
18297;DHT22;18066;52.106;5.534;2023-08-24T15:15:57;25.30;99.90
18297;DHT22;18066;52.106;5.534;2023-08-24T15:18:25;25.40;99.90
18297;DHT22;18066;52.106;5.534;2023-08-24T15:20:52;25.40;99.90
18297;DHT22;18066;52.106;5.534;2023-08-24T15:23:24;25.40;99.90
18297;DHT22;18066;52.106;5.534;2023-08-24T15:25:52;25.40;99.90
18297;DHT22;18066;52.106;5.534;2023-08-24T15:28:21;25.30;99.90
18297;DHT22;18066;52.106;5.534;2023-08-24T15:30:48;25.30;99.90
18297;DHT22;18066;52.106;5.534;2023-08-24T15:33:15;25.30;99.90
18297;DHT22;18066;52.106;5.534;2023-08-24T15:35:42;25.30;99.90
18297;DHT22;18066;52.106;5.534;2023-08-24T15:38:10;25.30;99.90
18297;DHT22;18066;52.106;5.534;2023-08-24T15:40:38;25.40;99.90
18297;DHT22;18066;52.106;5.534;2023-08-24T15:43:06;25.40;99.90
18297;DHT22;18066;52.106;5.534;2023-08-24T15:45:34;25.50;99.90